sensor_id;sensor_type;location;lat;lon;timestamp;P1;durP1;ratioP1;P2;durP2;ratioP2
55112;SDS011;41006;50.920;3.456;2023-06-10T00:00:27;7.97;;;6.07;;
55112;SDS011;41006;50.920;3.456;2023-06-10T00:00:57;9.93;;;7.82;;
55112;SDS011;41006;50.920;3.456;2023-06-10T00:01:29;11.23;;;7.10;;
55112;SDS011;41006;50.920;3.456;2023-06-10T00:02:00;7.22;;;6.53;;
55112;SDS011;41006;50.920;3.456;2023-06-10T00:02:30;7.63;;;6.50;;
55112;SDS011;41006;50.920;3.456;2023-06-10T00:03:05;10.05;;;7.47;;
55112;SDS011;41006;50.920;3.456;2023-06-10T00:03:35;7.80;;;6.25;;
55112;SDS011;41006;50.920;3.456;2023-06-10T00:04:06;7.53;;;6.72;;
55112;SDS011;41006;50.920;3.456;2023-06-10T00:04:36;10.90;;;6.57;;
55112;SDS011;41006;50.920;3.456;2023-06-10T00:05:14;8.95;;;6.75;;
55112;SDS011;41006;50.920;3.456;2023-06-10T00:05:46;9.25;;;7.53;;
55112;SDS011;41006;50.920;3.456;2023-06-10T00:06:19;11.73;;;7.22;;
55112;SDS011;41006;50.920;3.456;2023-06-10T00:06:54;7.20;;;6.47;;
55112;SDS011;41006;50.920;3.456;2023-06-10T00:07:27;7.70;;;6.82;;
55112;SDS011;41006;50.920;3.456;2023-06-10T00:08:00;7.63;;;6.75;;
55112;SDS011;41006;50.920;3.456;2023-06-10T00:08:37;11.65;;;7.43;;
55112;SDS011;41006;50.920;3.456;2023-06-10T00:09:07;11.38;;;7.07;;
55112;SDS011;41006;50.920;3.456;2023-06-10T00:09:40;9.85;;;6.82;;
55112;SDS011;41006;50.920;3.456;2023-06-10T00:10:13;10.35;;;6.97;;
55112;SDS011;41006;50.920;3.456;2023-06-10T00:10:48;9.77;;;6.85;;
55112;SDS011;41006;50.920;3.456;2023-06-10T00:11:24;7.20;;;6.55;;
55112;SDS011;41006;50.920;3.456;2023-06-10T00:11:55;9.75;;;7.60;;
55112;SDS011;41006;50.920;3.456;2023-06-10T00:12:29;9.60;;;6.40;;
55112;SDS011;41006;50.920;3.456;2023-06-10T00:13:04;8.50;;;6.68;;
55112;SDS011;41006;50.920;3.456;2023-06-10T00:13:38;7.93;;;6.40;;
55112;SDS011;41006;50.920;3.456;2023-06-10T00:14:11;8.63;;;6.95;;
55112;SDS011;41006;50.920;3.456;2023-06-10T00:14:43;10.93;;;7.43;;
55112;SDS011;41006;50.920;3.456;2023-06-10T00:15:13;7.93;;;7.18;;
55112;SDS011;41006;50.920;3.456;2023-06-10T00:15:47;9.27;;;6.97;;
55112;SDS011;41006;50.920;3.456;2023-06-10T00:16:19;8.80;;;7.25;;
55112;SDS011;41006;50.920;3.456;2023-06-10T00:16:50;8.82;;;7.28;;
55112;SDS011;41006;50.920;3.456;2023-06-10T00:17:22;8.45;;;6.20;;
55112;SDS011;41006;50.920;3.456;2023-06-10T00:17:55;12.30;;;7.28;;
55112;SDS011;41006;50.920;3.456;2023-06-10T00:18:25;8.20;;;7.10;;
55112;SDS011;41006;50.920;3.456;2023-06-10T00:18:56;7.55;;;6.85;;
55112;SDS011;41006;50.920;3.456;2023-06-10T00:19:31;7.97;;;6.90;;
55112;SDS011;41006;50.920;3.456;2023-06-10T00:20:03;8.68;;;7.35;;
55112;SDS011;41006;50.920;3.456;2023-06-10T00:20:39;11.40;;;7.50;;
55112;SDS011;41006;50.920;3.456;2023-06-10T00:21:09;8.63;;;7.30;;
55112;SDS011;41006;50.920;3.456;2023-06-10T00:21:43;8.77;;;7.65;;
55112;SDS011;41006;50.920;3.456;2023-06-10T00:22:14;9.15;;;7.28;;
55112;SDS011;41006;50.920;3.456;2023-06-10T00:22:45;12.93;;;7.10;;
55112;SDS011;41006;50.920;3.456;2023-06-10T00:23:19;7.88;;;7.07;;
55112;SDS011;41006;50.920;3.456;2023-06-10T00:23:49;9.27;;;7.00;;
55112;SDS011;41006;50.920;3.456;2023-06-10T00:24:20;8.65;;;7.55;;
55112;SDS011;41006;50.920;3.456;2023-06-10T00:24:50;9.75;;;6.85;;
55112;SDS011;41006;50.920;3.456;2023-06-10T00:25:23;9.60;;;7.15;;
55112;SDS011;41006;50.920;3.456;2023-06-10T00:25:57;9.60;;;7.78;;
55112;SDS011;41006;50.920;3.456;2023-06-10T00:26:29;9.25;;;7.45;;
55112;SDS011;41006;50.920;3.456;2023-06-10T00:27:04;11.60;;;7.03;;
55112;SDS011;41006;50.920;3.456;2023-06-10T00:27:36;9.18;;;7.15;;
55112;SDS011;41006;50.920;3.456;2023-06-10T00:28:06;8.55;;;7.68;;
55112;SDS011;41006;50.920;3.456;2023-06-10T00:28:37;9.45;;;6.78;;
55112;SDS011;41006;50.920;3.456;2023-06-10T00:29:10;8.65;;;7.28;;
55112;SDS011;41006;50.920;3.456;2023-06-10T00:29:42;9.70;;;7.53;;
55112;SDS011;41006;50.920;3.456;2023-06-10T00:30:13;9.73;;;6.93;;
55112;SDS011;41006;50.920;3.456;2023-06-10T00:30:46;9.02;;;7.60;;
55112;SDS011;41006;50.920;3.456;2023-06-10T00:31:19;11.32;;;7.70;;
55112;SDS011;41006;50.920;3.456;2023-06-10T00:31:50;13.98;;;7.75;;
55112;SDS011;41006;50.920;3.456;2023-06-10T00:32:27;9.63;;;7.03;;
55112;SDS011;41006;50.920;3.456;2023-06-10T00:32:57;8.88;;;7.32;;
55112;SDS011;41006;50.920;3.456;2023-06-10T00:33:28;11.98;;;8.10;;
55112;SDS011;41006;50.920;3.456;2023-06-10T00:33:59;10.57;;;7.65;;
55112;SDS011;41006;50.920;3.456;2023-06-10T00:34:29;14.32;;;7.80;;
55112;SDS011;41006;50.920;3.456;2023-06-10T00:35:00;9.55;;;7.10;;
55112;SDS011;41006;50.920;3.456;2023-06-10T00:35:30;11.20;;;7.20;;
55112;SDS011;41006;50.920;3.456;2023-06-10T00:36:03;11.43;;;7.30;;
55112;SDS011;41006;50.920;3.456;2023-06-10T00:36:33;9.63;;;7.78;;
55112;SDS011;41006;50.920;3.456;2023-06-10T00:37:05;12.85;;;7.68;;
55112;SDS011;41006;50.920;3.456;2023-06-10T00:37:38;11.70;;;7.80;;
55112;SDS011;41006;50.920;3.456;2023-06-10T00:38:12;8.52;;;7.35;;
55112;SDS011;41006;50.920;3.456;2023-06-10T00:38:46;8.65;;;6.85;;
55112;SDS011;41006;50.920;3.456;2023-06-10T00:39:18;10.63;;;7.75;;
55112;SDS011;41006;50.920;3.456;2023-06-10T00:39:51;9.82;;;7.55;;
55112;SDS011;41006;50.920;3.456;2023-06-10T00:40:23;11.43;;;7.57;;
55112;SDS011;41006;50.920;3.456;2023-06-10T00:41:01;10.75;;;7.93;;
55112;SDS011;41006;50.920;3.456;2023-06-10T00:41:32;7.97;;;7.15;;
55112;SDS011;41006;50.920;3.456;2023-06-10T00:42:07;9.00;;;8.10;;
55112;SDS011;41006;50.920;3.456;2023-06-10T00:42:40;8.00;;;6.97;;
55112;SDS011;41006;50.920;3.456;2023-06-10T00:43:16;10.00;;;7.63;;
55112;SDS011;41006;50.920;3.456;2023-06-10T00:43:48;10.00;;;7.80;;
55112;SDS011;41006;50.920;3.456;2023-06-10T00:44:21;10.93;;;8.02;;
55112;SDS011;41006;50.920;3.456;2023-06-10T00:44:51;10.40;;;8.02;;
55112;SDS011;41006;50.920;3.456;2023-06-10T00:45:28;13.73;;;7.65;;
55112;SDS011;41006;50.920;3.456;2023-06-10T00:45:58;8.93;;;8.00;;
55112;SDS011;41006;50.920;3.456;2023-06-10T00:46:32;10.02;;;8.00;;
55112;SDS011;41006;50.920;3.456;2023-06-10T00:47:06;9.07;;;7.40;;
55112;SDS011;41006;50.920;3.456;2023-06-10T00:47:37;9.63;;;7.53;;
55112;SDS011;41006;50.920;3.456;2023-06-10T00:48:11;10.85;;;7.70;;
55112;SDS011;41006;50.920;3.456;2023-06-10T00:48:42;10.88;;;7.38;;
55112;SDS011;41006;50.920;3.456;2023-06-10T00:49:15;9.73;;;8.65;;
55112;SDS011;41006;50.920;3.456;2023-06-10T00:49:47;10.85;;;7.80;;
55112;SDS011;41006;50.920;3.456;2023-06-10T00:50:19;8.00;;;7.20;;
55112;SDS011;41006;50.920;3.456;2023-06-10T00:50:49;11.18;;;7.60;;
55112;SDS011;41006;50.920;3.456;2023-06-10T00:51:20;8.05;;;7.30;;
55112;SDS011;41006;50.920;3.456;2023-06-10T00:51:55;13.23;;;8.07;;
55112;SDS011;41006;50.920;3.456;2023-06-10T00:52:27;8.02;;;7.22;;
55112;SDS011;41006;50.920;3.456;2023-06-10T00:52:59;9.07;;;8.02;;
55112;SDS011;41006;50.920;3.456;2023-06-10T00:53:31;7.78;;;7.13;;
55112;SDS011;41006;50.920;3.456;2023-06-10T00:54:02;11.80;;;8.07;;
55112;SDS011;41006;50.920;3.456;2023-06-10T00:54:34;8.73;;;7.88;;
55112;SDS011;41006;50.920;3.456;2023-06-10T00:55:07;9.30;;;8.25;;
55112;SDS011;41006;50.920;3.456;2023-06-10T00:55:37;11.13;;;7.63;;
55112;SDS011;41006;50.920;3.456;2023-06-10T00:56:08;8.18;;;6.95;;
55112;SDS011;41006;50.920;3.456;2023-06-10T00:56:42;9.63;;;8.07;;
55112;SDS011;41006;50.920;3.456;2023-06-10T00:57:13;8.63;;;7.53;;
55112;SDS011;41006;50.920;3.456;2023-06-10T00:57:46;9.20;;;8.02;;
55112;SDS011;41006;50.920;3.456;2023-06-10T00:58:22;10.75;;;8.15;;
55112;SDS011;41006;50.920;3.456;2023-06-10T00:58:56;9.70;;;8.05;;
55112;SDS011;41006;50.920;3.456;2023-06-10T00:59:30;9.38;;;7.82;;
55112;SDS011;41006;50.920;3.456;2023-06-10T01:00:01;9.02;;;8.23;;
55112;SDS011;41006;50.920;3.456;2023-06-10T01:00:31;11.13;;;8.38;;
55112;SDS011;41006;50.920;3.456;2023-06-10T01:01:02;10.18;;;8.18;;
55112;SDS011;41006;50.920;3.456;2023-06-10T01:01:34;11.35;;;8.68;;
55112;SDS011;41006;50.920;3.456;2023-06-10T01:02:07;10.75;;;8.60;;
55112;SDS011;41006;50.920;3.456;2023-06-10T01:02:41;8.77;;;7.72;;
55112;SDS011;41006;50.920;3.456;2023-06-10T01:03:14;10.10;;;9.02;;
55112;SDS011;41006;50.920;3.456;2023-06-10T01:03:47;10.07;;;8.02;;
55112;SDS011;41006;50.920;3.456;2023-06-10T01:04:18;8.70;;;7.82;;
55112;SDS011;41006;50.920;3.456;2023-06-10T01:04:52;13.65;;;8.75;;
55112;SDS011;41006;50.920;3.456;2023-06-10T01:05:23;13.48;;;8.55;;
55112;SDS011;41006;50.920;3.456;2023-06-10T01:05:57;12.05;;;8.60;;
55112;SDS011;41006;50.920;3.456;2023-06-10T01:06:40;9.65;;;8.48;;
55112;SDS011;41006;50.920;3.456;2023-06-10T01:10:57;13.60;;;8.52;;
55112;SDS011;41006;50.920;3.456;2023-06-10T01:11:36;12.20;;;9.40;;
55112;SDS011;41006;50.920;3.456;2023-06-10T01:13:23;9.43;;;8.40;;
55112;SDS011;41006;50.920;3.456;2023-06-10T01:14:01;9.65;;;8.45;;
55112;SDS011;41006;50.920;3.456;2023-06-10T01:14:37;12.00;;;8.07;;
55112;SDS011;41006;50.920;3.456;2023-06-10T01:15:11;10.68;;;7.85;;
55112;SDS011;41006;50.920;3.456;2023-06-10T01:15:42;14.95;;;9.10;;
55112;SDS011;41006;50.920;3.456;2023-06-10T01:16:15;12.63;;;9.10;;
55112;SDS011;41006;50.920;3.456;2023-06-10T01:16:46;9.02;;;7.72;;
55112;SDS011;41006;50.920;3.456;2023-06-10T01:17:19;9.48;;;8.25;;
55112;SDS011;41006;50.920;3.456;2023-06-10T01:18:08;8.60;;;7.55;;
55112;SDS011;41006;50.920;3.456;2023-06-10T01:18:47;11.50;;;8.65;;
55112;SDS011;41006;50.920;3.456;2023-06-10T01:19:20;11.20;;;9.18;;
55112;SDS011;41006;50.920;3.456;2023-06-10T01:19:56;10.52;;;8.25;;
55112;SDS011;41006;50.920;3.456;2023-06-10T01:20:27;12.13;;;8.77;;
55112;SDS011;41006;50.920;3.456;2023-06-10T01:21:02;9.27;;;8.38;;
55112;SDS011;41006;50.920;3.456;2023-06-10T01:21:33;10.25;;;8.02;;
55112;SDS011;41006;50.920;3.456;2023-06-10T01:22:06;11.25;;;8.80;;
55112;SDS011;41006;50.920;3.456;2023-06-10T01:22:37;9.18;;;8.27;;
55112;SDS011;41006;50.920;3.456;2023-06-10T01:23:07;10.60;;;8.55;;
55112;SDS011;41006;50.920;3.456;2023-06-10T01:23:38;8.93;;;7.85;;
55112;SDS011;41006;50.920;3.456;2023-06-10T01:24:13;11.07;;;8.45;;
55112;SDS011;41006;50.920;3.456;2023-06-10T01:24:47;9.27;;;8.32;;
55112;SDS011;41006;50.920;3.456;2023-06-10T01:25:23;9.82;;;8.45;;
55112;SDS011;41006;50.920;3.456;2023-06-10T01:26:00;10.40;;;8.75;;
55112;SDS011;41006;50.920;3.456;2023-06-10T01:27:12;12.57;;;8.68;;
55112;SDS011;41006;50.920;3.456;2023-06-10T01:27:47;9.50;;;8.50;;
55112;SDS011;41006;50.920;3.456;2023-06-10T01:29:46;10.77;;;8.77;;
55112;SDS011;41006;50.920;3.456;2023-06-10T01:30:26;11.57;;;8.35;;
55112;SDS011;41006;50.920;3.456;2023-06-10T01:31:37;12.43;;;8.25;;
55112;SDS011;41006;50.920;3.456;2023-06-10T01:32:21;10.75;;;8.88;;
55112;SDS011;41006;50.920;3.456;2023-06-10T01:32:56;10.38;;;8.55;;
55112;SDS011;41006;50.920;3.456;2023-06-10T01:33:33;13.68;;;9.18;;
55112;SDS011;41006;50.920;3.456;2023-06-10T01:34:14;11.60;;;8.50;;
55112;SDS011;41006;50.920;3.456;2023-06-10T01:34:49;10.02;;;8.88;;
55112;SDS011;41006;50.920;3.456;2023-06-10T01:35:20;12.20;;;8.80;;
55112;SDS011;41006;50.920;3.456;2023-06-10T01:35:56;9.75;;;8.73;;
55112;SDS011;41006;50.920;3.456;2023-06-10T01:36:28;13.07;;;8.88;;
55112;SDS011;41006;50.920;3.456;2023-06-10T01:37:04;11.40;;;8.95;;
55112;SDS011;41006;50.920;3.456;2023-06-10T01:37:37;9.48;;;8.32;;
55112;SDS011;41006;50.920;3.456;2023-06-10T01:38:12;10.68;;;8.95;;
55112;SDS011;41006;50.920;3.456;2023-06-10T01:38:44;10.93;;;8.43;;
55112;SDS011;41006;50.920;3.456;2023-06-10T01:39:16;8.90;;;8.00;;
55112;SDS011;41006;50.920;3.456;2023-06-10T01:39:48;9.05;;;8.18;;
55112;SDS011;41006;50.920;3.456;2023-06-10T01:40:19;10.93;;;8.50;;
55112;SDS011;41006;50.920;3.456;2023-06-10T01:40:53;8.98;;;8.18;;
55112;SDS011;41006;50.920;3.456;2023-06-10T01:41:26;10.93;;;8.85;;
55112;SDS011;41006;50.920;3.456;2023-06-10T01:42:00;11.20;;;9.10;;
55112;SDS011;41006;50.920;3.456;2023-06-10T01:42:32;10.93;;;8.82;;
55112;SDS011;41006;50.920;3.456;2023-06-10T01:43:05;17.92;;;8.77;;
55112;SDS011;41006;50.920;3.456;2023-06-10T01:43:38;14.35;;;8.68;;
55112;SDS011;41006;50.920;3.456;2023-06-10T01:44:09;10.65;;;9.20;;
55112;SDS011;41006;50.920;3.456;2023-06-10T01:44:42;9.90;;;8.90;;
55112;SDS011;41006;50.920;3.456;2023-06-10T01:45:12;11.93;;;9.48;;
55112;SDS011;41006;50.920;3.456;2023-06-10T01:45:48;14.70;;;9.43;;
55112;SDS011;41006;50.920;3.456;2023-06-10T01:46:18;10.18;;;9.05;;
55112;SDS011;41006;50.920;3.456;2023-06-10T01:46:51;12.45;;;8.93;;
55112;SDS011;41006;50.920;3.456;2023-06-10T01:47:24;9.25;;;8.43;;
55112;SDS011;41006;50.920;3.456;2023-06-10T01:48:02;13.52;;;9.20;;
55112;SDS011;41006;50.920;3.456;2023-06-10T01:48:35;10.85;;;8.57;;
55112;SDS011;41006;50.920;3.456;2023-06-10T01:49:05;10.40;;;9.05;;
55112;SDS011;41006;50.920;3.456;2023-06-10T01:49:37;13.00;;;9.25;;
55112;SDS011;41006;50.920;3.456;2023-06-10T01:50:07;9.55;;;8.50;;
55112;SDS011;41006;50.920;3.456;2023-06-10T01:50:38;12.27;;;10.02;;
55112;SDS011;41006;50.920;3.456;2023-06-10T01:51:11;10.45;;;9.32;;
55112;SDS011;41006;50.920;3.456;2023-06-10T01:51:41;10.38;;;9.20;;
55112;SDS011;41006;50.920;3.456;2023-06-10T01:52:14;10.18;;;8.88;;
55112;SDS011;41006;50.920;3.456;2023-06-10T01:52:46;10.30;;;9.18;;
55112;SDS011;41006;50.920;3.456;2023-06-10T01:53:21;11.88;;;9.30;;
55112;SDS011;41006;50.920;3.456;2023-06-10T01:53:57;11.77;;;8.90;;
55112;SDS011;41006;50.920;3.456;2023-06-10T01:54:30;12.68;;;8.88;;
55112;SDS011;41006;50.920;3.456;2023-06-10T01:55:04;10.55;;;8.40;;
55112;SDS011;41006;50.920;3.456;2023-06-10T01:55:35;9.77;;;8.88;;
55112;SDS011;41006;50.920;3.456;2023-06-10T01:56:05;10.20;;;9.30;;
55112;SDS011;41006;50.920;3.456;2023-06-10T01:56:38;13.48;;;9.40;;
55112;SDS011;41006;50.920;3.456;2023-06-10T01:57:12;10.10;;;8.52;;
55112;SDS011;41006;50.920;3.456;2023-06-10T01:57:47;11.98;;;10.13;;
55112;SDS011;41006;50.920;3.456;2023-06-10T01:58:17;10.10;;;9.05;;
55112;SDS011;41006;50.920;3.456;2023-06-10T01:58:48;10.27;;;8.50;;
55112;SDS011;41006;50.920;3.456;2023-06-10T01:59:25;9.75;;;8.82;;
55112;SDS011;41006;50.920;3.456;2023-06-10T01:59:58;15.52;;;9.52;;
55112;SDS011;41006;50.920;3.456;2023-06-10T02:00:30;11.43;;;9.15;;
55112;SDS011;41006;50.920;3.456;2023-06-10T02:01:03;10.77;;;9.68;;
55112;SDS011;41006;50.920;3.456;2023-06-10T02:01:33;9.82;;;8.93;;
55112;SDS011;41006;50.920;3.456;2023-06-10T02:02:04;10.15;;;9.18;;
55112;SDS011;41006;50.920;3.456;2023-06-10T02:02:37;11.57;;;9.10;;
55112;SDS011;41006;50.920;3.456;2023-06-10T02:03:07;10.90;;;8.88;;
55112;SDS011;41006;50.920;3.456;2023-06-10T02:03:41;10.90;;;9.02;;
55112;SDS011;41006;50.920;3.456;2023-06-10T02:04:13;9.90;;;9.00;;
55112;SDS011;41006;50.920;3.456;2023-06-10T02:04:46;9.48;;;8.52;;
55112;SDS011;41006;50.920;3.456;2023-06-10T02:05:19;11.10;;;8.55;;
55112;SDS011;41006;50.920;3.456;2023-06-10T02:05:49;14.75;;;9.00;;
55112;SDS011;41006;50.920;3.456;2023-06-10T02:06:23;10.20;;;9.23;;
55112;SDS011;41006;50.920;3.456;2023-06-10T02:06:55;11.80;;;9.80;;
55112;SDS011;41006;50.920;3.456;2023-06-10T02:07:26;10.15;;;9.15;;
55112;SDS011;41006;50.920;3.456;2023-06-10T02:07:56;10.32;;;9.32;;
55112;SDS011;41006;50.920;3.456;2023-06-10T02:08:29;10.82;;;9.63;;
55112;SDS011;41006;50.920;3.456;2023-06-10T02:08:59;9.98;;;8.95;;
55112;SDS011;41006;50.920;3.456;2023-06-10T02:09:30;10.43;;;9.35;;
55112;SDS011;41006;50.920;3.456;2023-06-10T02:10:08;12.10;;;9.38;;
55112;SDS011;41006;50.920;3.456;2023-06-10T02:10:41;10.68;;;9.50;;
55112;SDS011;41006;50.920;3.456;2023-06-10T02:11:16;13.52;;;9.48;;
55112;SDS011;41006;50.920;3.456;2023-06-10T02:11:53;11.13;;;9.27;;
55112;SDS011;41006;50.920;3.456;2023-06-10T02:12:23;11.05;;;9.18;;
55112;SDS011;41006;50.920;3.456;2023-06-10T02:12:55;12.73;;;9.60;;
55112;SDS011;41006;50.920;3.456;2023-06-10T02:13:28;10.73;;;9.50;;
55112;SDS011;41006;50.920;3.456;2023-06-10T02:14:01;12.23;;;9.90;;
55112;SDS011;41006;50.920;3.456;2023-06-10T02:14:35;11.93;;;9.82;;
55112;SDS011;41006;50.920;3.456;2023-06-10T02:15:06;10.50;;;9.50;;
55112;SDS011;41006;50.920;3.456;2023-06-10T02:15:39;11.45;;;10.25;;
55112;SDS011;41006;50.920;3.456;2023-06-10T02:16:09;10.45;;;9.45;;
55112;SDS011;41006;50.920;3.456;2023-06-10T02:16:46;12.15;;;9.68;;
55112;SDS011;41006;50.920;3.456;2023-06-10T02:17:17;9.75;;;8.60;;
55112;SDS011;41006;50.920;3.456;2023-06-10T02:17:48;11.88;;;9.57;;
55112;SDS011;41006;50.920;3.456;2023-06-10T02:18:20;10.02;;;8.70;;
55112;SDS011;41006;50.920;3.456;2023-06-10T02:18:51;13.70;;;9.43;;
55112;SDS011;41006;50.920;3.456;2023-06-10T02:19:22;14.25;;;9.27;;
55112;SDS011;41006;50.920;3.456;2023-06-10T02:19:56;10.75;;;9.63;;
55112;SDS011;41006;50.920;3.456;2023-06-10T02:20:27;10.93;;;9.82;;
55112;SDS011;41006;50.920;3.456;2023-06-10T02:20:59;11.18;;;9.15;;
55112;SDS011;41006;50.920;3.456;2023-06-10T02:21:32;11.35;;;8.60;;
55112;SDS011;41006;50.920;3.456;2023-06-10T02:22:04;11.93;;;9.85;;
55112;SDS011;41006;50.920;3.456;2023-06-10T02:22:34;13.27;;;9.73;;
55112;SDS011;41006;50.920;3.456;2023-06-10T02:23:09;18.10;;;10.10;;
55112;SDS011;41006;50.920;3.456;2023-06-10T02:23:40;10.85;;;9.85;;
55112;SDS011;41006;50.920;3.456;2023-06-10T02:24:10;10.15;;;9.15;;
55112;SDS011;41006;50.920;3.456;2023-06-10T02:24:41;10.57;;;9.23;;
55112;SDS011;41006;50.920;3.456;2023-06-10T02:25:12;10.93;;;9.35;;
55112;SDS011;41006;50.920;3.456;2023-06-10T02:25:46;13.15;;;11.07;;
55112;SDS011;41006;50.920;3.456;2023-06-10T02:26:18;11.18;;;10.07;;
55112;SDS011;41006;50.920;3.456;2023-06-10T02:26:48;11.40;;;10.20;;
55112;SDS011;41006;50.920;3.456;2023-06-10T02:27:21;9.85;;;8.85;;
55112;SDS011;41006;50.920;3.456;2023-06-10T02:27:52;11.85;;;9.98;;
55112;SDS011;41006;50.920;3.456;2023-06-10T02:28:22;10.73;;;9.55;;
55112;SDS011;41006;50.920;3.456;2023-06-10T02:28:55;11.25;;;10.02;;
55112;SDS011;41006;50.920;3.456;2023-06-10T02:29:25;11.18;;;10.13;;
55112;SDS011;41006;50.920;3.456;2023-06-10T02:30:00;12.63;;;10.68;;
55112;SDS011;41006;50.920;3.456;2023-06-10T02:30:31;13.38;;;10.52;;
55112;SDS011;41006;50.920;3.456;2023-06-10T02:31:03;13.93;;;9.80;;
55112;SDS011;41006;50.920;3.456;2023-06-10T02:31:34;11.40;;;10.27;;
55112;SDS011;41006;50.920;3.456;2023-06-10T02:32:05;11.88;;;10.75;;
55112;SDS011;41006;50.920;3.456;2023-06-10T02:32:36;11.43;;;10.13;;
55112;SDS011;41006;50.920;3.456;2023-06-10T02:33:07;11.18;;;10.07;;
55112;SDS011;41006;50.920;3.456;2023-06-10T02:33:42;14.40;;;9.93;;
55112;SDS011;41006;50.920;3.456;2023-06-10T02:34:20;12.52;;;10.38;;
55112;SDS011;41006;50.920;3.456;2023-06-10T02:34:50;10.93;;;9.73;;
55112;SDS011;41006;50.920;3.456;2023-06-10T02:35:21;13.38;;;10.63;;
55112;SDS011;41006;50.920;3.456;2023-06-10T02:35:55;13.35;;;11.40;;
55112;SDS011;41006;50.920;3.456;2023-06-10T02:36:25;14.05;;;10.73;;
55112;SDS011;41006;50.920;3.456;2023-06-10T02:36:58;11.20;;;10.02;;
55112;SDS011;41006;50.920;3.456;2023-06-10T02:37:28;18.35;;;10.60;;
55112;SDS011;41006;50.920;3.456;2023-06-10T02:37:59;13.52;;;11.50;;
55112;SDS011;41006;50.920;3.456;2023-06-10T02:38:29;12.40;;;10.18;;
55112;SDS011;41006;50.920;3.456;2023-06-10T02:39:02;11.57;;;10.48;;
55112;SDS011;41006;50.920;3.456;2023-06-10T02:39:34;12.02;;;10.85;;
55112;SDS011;41006;50.920;3.456;2023-06-10T02:40:04;11.88;;;10.70;;
55112;SDS011;41006;50.920;3.456;2023-06-10T02:40:40;10.40;;;9.38;;
55112;SDS011;41006;50.920;3.456;2023-06-10T02:41:10;12.90;;;10.55;;
55112;SDS011;41006;50.920;3.456;2023-06-10T02:41:45;10.93;;;9.90;;
55112;SDS011;41006;50.920;3.456;2023-06-10T02:42:17;11.90;;;10.70;;
55112;SDS011;41006;50.920;3.456;2023-06-10T02:42:48;14.13;;;9.55;;
55112;SDS011;41006;50.920;3.456;2023-06-10T02:43:18;11.30;;;9.98;;
55112;SDS011;41006;50.920;3.456;2023-06-10T02:43:48;14.80;;;10.15;;
55112;SDS011;41006;50.920;3.456;2023-06-10T02:44:21;11.15;;;9.85;;
55112;SDS011;41006;50.920;3.456;2023-06-10T02:44:51;11.60;;;9.68;;
55112;SDS011;41006;50.920;3.456;2023-06-10T02:45:24;10.88;;;9.88;;
55112;SDS011;41006;50.920;3.456;2023-06-10T02:46:00;12.00;;;10.05;;
55112;SDS011;41006;50.920;3.456;2023-06-10T02:46:30;18.25;;;10.68;;
55112;SDS011;41006;50.920;3.456;2023-06-10T02:47:02;11.05;;;9.95;;
55112;SDS011;41006;50.920;3.456;2023-06-10T02:47:32;10.63;;;9.27;;
55112;SDS011;41006;50.920;3.456;2023-06-10T02:48:02;11.70;;;10.48;;
55112;SDS011;41006;50.920;3.456;2023-06-10T02:48:41;12.10;;;10.18;;
55112;SDS011;41006;50.920;3.456;2023-06-10T02:49:19;10.57;;;9.45;;
55112;SDS011;41006;50.920;3.456;2023-06-10T02:49:49;12.82;;;10.10;;
55112;SDS011;41006;50.920;3.456;2023-06-10T02:50:22;11.73;;;10.30;;
55112;SDS011;41006;50.920;3.456;2023-06-10T02:50:55;11.50;;;10.25;;
55112;SDS011;41006;50.920;3.456;2023-06-10T02:51:30;11.40;;;10.30;;
55112;SDS011;41006;50.920;3.456;2023-06-10T02:52:05;11.88;;;10.38;;
55112;SDS011;41006;50.920;3.456;2023-06-10T02:52:41;13.07;;;10.43;;
55112;SDS011;41006;50.920;3.456;2023-06-10T02:53:13;12.23;;;9.48;;
55112;SDS011;41006;50.920;3.456;2023-06-10T02:53:44;12.00;;;10.23;;
55112;SDS011;41006;50.920;3.456;2023-06-10T02:54:15;11.27;;;10.07;;
55112;SDS011;41006;50.920;3.456;2023-06-10T02:54:53;12.10;;;10.88;;
55112;SDS011;41006;50.920;3.456;2023-06-10T02:55:23;10.90;;;9.90;;
55112;SDS011;41006;50.920;3.456;2023-06-10T02:55:58;11.82;;;10.73;;
55112;SDS011;41006;50.920;3.456;2023-06-10T02:56:28;13.23;;;10.10;;
55112;SDS011;41006;50.920;3.456;2023-06-10T02:57:03;10.93;;;9.82;;
55112;SDS011;41006;50.920;3.456;2023-06-10T02:57:33;12.13;;;9.80;;
55112;SDS011;41006;50.920;3.456;2023-06-10T02:58:08;10.82;;;9.73;;
55112;SDS011;41006;50.920;3.456;2023-06-10T02:58:38;11.50;;;10.27;;
55112;SDS011;41006;50.920;3.456;2023-06-10T02:59:11;11.88;;;9.57;;
55112;SDS011;41006;50.920;3.456;2023-06-10T02:59:42;11.25;;;9.95;;
55112;SDS011;41006;50.920;3.456;2023-06-10T03:00:12;13.32;;;10.32;;
55112;SDS011;41006;50.920;3.456;2023-06-10T03:00:44;11.68;;;10.45;;
55112;SDS011;41006;50.920;3.456;2023-06-10T03:01:15;10.27;;;9.27;;
55112;SDS011;41006;50.920;3.456;2023-06-10T03:01:47;11.68;;;10.50;;
55112;SDS011;41006;50.920;3.456;2023-06-10T03:02:22;14.32;;;9.90;;
55112;SDS011;41006;50.920;3.456;2023-06-10T03:02:58;16.38;;;10.60;;
55112;SDS011;41006;50.920;3.456;2023-06-10T03:03:32;10.23;;;9.30;;
55112;SDS011;41006;50.920;3.456;2023-06-10T03:04:06;10.23;;;9.30;;
55112;SDS011;41006;50.920;3.456;2023-06-10T03:04:39;15.40;;;10.20;;
55112;SDS011;41006;50.920;3.456;2023-06-10T03:05:15;11.52;;;10.32;;
55112;SDS011;41006;50.920;3.456;2023-06-10T03:05:48;11.80;;;10.60;;
55112;SDS011;41006;50.920;3.456;2023-06-10T03:06:18;10.52;;;9.52;;
55112;SDS011;41006;50.920;3.456;2023-06-10T03:06:54;13.52;;;10.27;;
55112;SDS011;41006;50.920;3.456;2023-06-10T03:07:33;16.73;;;10.98;;
55112;SDS011;41006;50.920;3.456;2023-06-10T03:08:06;11.07;;;9.93;;
55112;SDS011;41006;50.920;3.456;2023-06-10T03:08:36;12.05;;;10.75;;
55112;SDS011;41006;50.920;3.456;2023-06-10T03:09:09;13.55;;;11.00;;
55112;SDS011;41006;50.920;3.456;2023-06-10T03:09:39;11.45;;;10.30;;
55112;SDS011;41006;50.920;3.456;2023-06-10T03:10:12;13.00;;;11.20;;
55112;SDS011;41006;50.920;3.456;2023-06-10T03:10:45;14.93;;;11.45;;
55112;SDS011;41006;50.920;3.456;2023-06-10T03:11:17;11.88;;;10.43;;
55112;SDS011;41006;50.920;3.456;2023-06-10T03:11:50;10.77;;;9.70;;
55112;SDS011;41006;50.920;3.456;2023-06-10T03:12:23;14.77;;;11.00;;
55112;SDS011;41006;50.920;3.456;2023-06-10T03:12:53;11.38;;;10.27;;
55112;SDS011;41006;50.920;3.456;2023-06-10T03:13:26;12.10;;;10.98;;
55112;SDS011;41006;50.920;3.456;2023-06-10T03:13:59;13.00;;;11.60;;
55112;SDS011;41006;50.920;3.456;2023-06-10T03:14:31;11.55;;;10.35;;
55112;SDS011;41006;50.920;3.456;2023-06-10T03:15:02;12.43;;;10.88;;
55112;SDS011;41006;50.920;3.456;2023-06-10T03:15:38;11.95;;;10.70;;
55112;SDS011;41006;50.920;3.456;2023-06-10T03:16:10;12.90;;;10.48;;
55112;SDS011;41006;50.920;3.456;2023-06-10T03:16:42;11.55;;;10.55;;
55112;SDS011;41006;50.920;3.456;2023-06-10T03:17:15;10.75;;;9.75;;
55112;SDS011;41006;50.920;3.456;2023-06-10T03:17:45;12.20;;;10.75;;
55112;SDS011;41006;50.920;3.456;2023-06-10T03:18:16;13.02;;;10.60;;
55112;SDS011;41006;50.920;3.456;2023-06-10T03:18:46;11.95;;;10.80;;
55112;SDS011;41006;50.920;3.456;2023-06-10T03:19:17;11.38;;;10.15;;
55112;SDS011;41006;50.920;3.456;2023-06-10T03:19:51;11.15;;;10.05;;
55112;SDS011;41006;50.920;3.456;2023-06-10T03:20:21;11.50;;;10.38;;
55112;SDS011;41006;50.920;3.456;2023-06-10T03:20:52;11.23;;;10.15;;
55112;SDS011;41006;50.920;3.456;2023-06-10T03:21:25;12.95;;;11.07;;
55112;SDS011;41006;50.920;3.456;2023-06-10T03:22:07;14.90;;;11.43;;
55112;SDS011;41006;50.920;3.456;2023-06-10T03:22:42;12.85;;;10.65;;